createdAt,value
2017-07-15T00:00:04.186Z,0
2017-07-15T00:01:03.845Z,0
2017-07-15T00:02:03.827Z,0
2017-07-15T00:03:03.818Z,0
2017-07-15T00:04:03.497Z,0
2017-07-15T00:05:03.768Z,0
2017-07-15T00:06:03.759Z,0
2017-07-15T00:07:03.756Z,0
2017-07-15T00:08:03.737Z,0
2017-07-15T00:09:03.388Z,0
2017-07-15T00:10:04.027Z,0
2017-07-15T00:11:03.668Z,0
2017-07-15T00:12:03.676Z,0
2017-07-15T00:13:03.647Z,0
2017-07-15T00:14:03.947Z,0
2017-07-15T00:15:03.287Z,0
2017-07-15T00:16:03.897Z,0
2017-07-15T00:17:03.895Z,0
2017-07-15T00:18:03.585Z,0
2017-07-15T00:19:03.552Z,0
2017-07-15T00:20:03.528Z,0
2017-07-15T00:21:03.201Z,0
2017-07-15T00:22:03.492Z,0
2017-07-15T00:23:03.816Z,0
2017-07-15T00:24:03.467Z,0
2017-07-15T00:25:03.167Z,0
2017-07-15T00:26:03.105Z,0
2017-07-15T00:27:03.432Z,0
2017-07-15T00:28:03.397Z,0
2017-07-15T00:29:03.371Z,0
2017-07-15T00:30:03.685Z,0
2017-07-15T00:31:03.349Z,0
2017-07-15T00:32:03.007Z,0
2017-07-15T00:33:03.298Z,0
2017-07-15T00:34:03.610Z,0
2017-07-15T00:35:03.567Z,0
2017-07-15T00:36:03.237Z,0
2017-07-15T00:37:03.383Z,0
2017-07-15T00:38:03.276Z,0
2017-07-15T00:39:02.887Z,0
2017-07-15T00:40:03.344Z,0
2017-07-15T00:41:02.840Z,0
2017-07-15T00:42:02.857Z,0
2017-07-15T00:43:03.106Z,0
2017-07-15T00:44:02.839Z,0
2017-07-15T00:45:03.106Z,0
2017-07-15T00:46:03.077Z,0
2017-07-15T00:47:02.441Z,0
2017-07-15T00:48:02.742Z,0
2017-07-15T00:49:03.326Z,0
2017-07-15T00:50:03.029Z,0
2017-07-15T00:51:03.307Z,0
2017-07-15T00:52:02.968Z,0
2017-07-15T00:53:02.968Z,0
2017-07-15T00:54:02.637Z,0
2017-07-15T00:55:02.946Z,0
2017-07-15T00:56:03.231Z,0
2017-07-15T00:57:02.907Z,0
2017-07-15T00:58:03.197Z,0
2017-07-15T00:59:03.159Z,0
2017-07-15T01:00:02.540Z,0
2017-07-15T01:01:03.156Z,0
2017-07-15T01:02:02.497Z,0
2017-07-15T01:03:03.112Z,0
2017-07-15T01:04:03.078Z,0
2017-07-15T01:05:02.732Z,0
2017-07-15T01:06:03.056Z,0
2017-07-15T01:07:02.723Z,0
2017-07-15T01:08:02.989Z,0
2017-07-15T01:09:02.683Z,0
2017-07-15T01:10:02.669Z,0
2017-07-15T01:11:02.654Z,0
2017-07-15T01:12:02.686Z,0
2017-07-15T01:13:02.286Z,0
2017-07-15T01:14:02.650Z,0
2017-07-15T01:15:02.862Z,0
2017-07-15T01:16:02.559Z,0
2017-07-15T01:17:02.539Z,0
2017-07-15T01:18:02.828Z,0
2017-07-15T01:19:02.767Z,0
2017-07-15T01:20:02.513Z,0
2017-07-15T01:21:02.478Z,0
2017-07-15T01:22:02.476Z,0
2017-07-15T01:23:02.536Z,0
2017-07-15T01:24:02.735Z,0
2017-07-15T01:25:02.506Z,0
2017-07-15T01:26:02.408Z,0
2017-07-15T01:27:02.053Z,0
2017-07-15T01:28:02.653Z,0
2017-07-15T01:29:02.646Z,0
2017-07-15T01:30:02.644Z,0
2017-07-15T01:31:02.601Z,0
2017-07-15T01:32:02.633Z,0
2017-07-15T01:33:01.958Z,0
2017-07-15T01:34:02.546Z,0
2017-07-15T01:35:02.545Z,0
2017-07-15T01:36:02.526Z,0
2017-07-15T01:37:02.535Z,0
2017-07-15T01:38:02.485Z,0
2017-07-15T01:39:02.487Z,0
2017-07-15T01:40:02.483Z,0
2017-07-15T01:41:02.136Z,0
2017-07-15T01:42:02.115Z,0
2017-07-15T01:43:02.398Z,0
2017-07-15T01:44:01.809Z,0
2017-07-15T01:45:02.356Z,0
2017-07-15T01:46:02.360Z,0
2017-07-15T01:47:02.029Z,0
2017-07-15T01:48:01.367Z,0
2017-07-15T01:49:01.993Z,0
2017-07-15T01:50:01.969Z,0
2017-07-15T01:51:01.954Z,0
2017-07-15T01:52:01.974Z,0
2017-07-15T01:53:01.918Z,0
2017-07-15T01:54:01.907Z,0
2017-07-15T01:55:01.895Z,0
2017-07-15T01:56:01.858Z,0
2017-07-15T01:57:02.154Z,0
2017-07-15T01:58:01.505Z,0
2017-07-15T01:59:01.491Z,0
2017-07-15T02:00:01.892Z,0
2017-07-15T02:01:01.483Z,0
2017-07-15T02:02:01.773Z,0
2017-07-15T02:03:01.544Z,0
2017-07-15T02:04:02.035Z,0
2017-07-15T02:05:02.065Z,0
2017-07-15T02:06:01.684Z,0
2017-07-15T02:07:01.420Z,0
2017-07-15T02:08:01.976Z,0
2017-07-15T02:09:02.077Z,0
2017-07-15T02:10:00.984Z,0
2017-07-15T02:11:01.660Z,0
2017-07-15T02:12:01.564Z,0
2017-07-15T02:13:01.238Z,0
2017-07-15T02:14:01.648Z,0
2017-07-15T02:15:01.207Z,0
2017-07-15T02:16:01.191Z,0
2017-07-15T02:17:01.153Z,0
2017-07-15T02:18:01.245Z,0
2017-07-15T02:19:01.440Z,0
2017-07-15T02:20:01.449Z,0
2017-07-15T02:21:01.121Z,0
2017-07-15T02:22:01.389Z,0
2017-07-15T02:23:01.405Z,0
2017-07-15T02:24:01.748Z,0
2017-07-15T02:25:01.023Z,0
2017-07-15T02:26:01.002Z,0
2017-07-15T02:27:00.732Z,0
2017-07-15T02:28:00.973Z,0
2017-07-15T02:29:01.268Z,0
2017-07-15T02:30:01.301Z,0
2017-07-15T02:31:01.309Z,0
2017-07-15T02:32:00.915Z,0
2017-07-15T02:33:01.270Z,0
2017-07-15T02:34:01.184Z,0
2017-07-15T02:35:01.224Z,0
2017-07-15T02:36:00.901Z,0
2017-07-15T02:37:01.512Z,0
2017-07-15T02:38:01.125Z,0
2017-07-15T02:39:00.792Z,0
2017-07-15T02:40:01.069Z,0
2017-07-15T02:41:00.754Z,0
2017-07-15T02:42:00.713Z,0
2017-07-15T02:43:00.739Z,0
2017-07-15T02:44:01.008Z,0
2017-07-15T02:45:00.354Z,0
2017-07-15T02:46:00.740Z,0
2017-07-15T02:47:01.318Z,0
2017-07-15T02:48:00.620Z,0
2017-07-15T02:49:00.901Z,0
2017-07-15T02:50:00.576Z,0
2017-07-15T02:51:00.899Z,0
2017-07-15T02:52:01.188Z,0
2017-07-15T02:53:00.874Z,0
2017-07-15T02:54:01.133Z,0
2017-07-15T02:55:00.825Z,0
2017-07-15T02:56:00.483Z,0
2017-07-15T02:57:00.789Z,0
2017-07-15T02:58:00.464Z,0
2017-07-15T02:59:00.436Z,0
2017-07-15T03:00:00.144Z,0
2017-07-15T03:01:00.393Z,0
2017-07-15T03:02:00.362Z,0
2017-07-15T03:03:00.687Z,0
2017-07-15T03:04:01.092Z,0
2017-07-15T03:05:00.325Z,0
2017-07-15T03:05:59.994Z,0
2017-07-15T03:07:00.615Z,0
2017-07-15T03:08:00.584Z,0
2017-07-15T03:09:00.665Z,0
2017-07-15T03:10:00.239Z,0
2017-07-15T03:11:00.234Z,0
2017-07-15T03:12:00.898Z,0
2017-07-15T03:13:00.498Z,0
2017-07-15T03:13:59.873Z,0
2017-07-15T03:15:00.480Z,0
2017-07-15T03:16:00.748Z,0
2017-07-15T03:17:00.115Z,0
2017-07-15T03:18:00.214Z,0
2017-07-15T03:19:00.396Z,0
2017-07-15T03:20:00.736Z,0
2017-07-15T03:21:00.355Z,0
2017-07-15T03:22:00.784Z,0
2017-07-15T03:23:00.026Z,0
2017-07-15T03:24:00.353Z,0
2017-07-15T03:25:00.284Z,0
2017-07-15T03:26:00.289Z,0
2017-07-15T03:27:00.265Z,0
2017-07-15T03:28:00.593Z,0
2017-07-15T03:29:00.235Z,0
2017-07-15T03:29:59.575Z,0
2017-07-15T03:31:00.190Z,0
2017-07-15T03:32:00.224Z,0
2017-07-15T03:32:59.855Z,0
2017-07-15T03:33:59.538Z,0
2017-07-15T03:35:00.115Z,0
2017-07-15T03:36:00.160Z,0
2017-07-15T03:36:59.785Z,0
2017-07-15T03:38:00.064Z,0
2017-07-15T03:38:59.435Z,0
2017-07-15T03:40:00.344Z,0
2017-07-15T03:41:00.026Z,0
2017-07-15T03:42:00.021Z,0
2017-07-15T03:42:59.988Z,0
2017-07-15T03:44:00.267Z,0
2017-07-15T03:44:59.637Z,0
2017-07-15T03:45:59.611Z,0
2017-07-15T03:46:59.601Z,0
2017-07-15T03:47:59.264Z,0
2017-07-15T03:48:59.556Z,0
2017-07-15T03:50:00.245Z,0
2017-07-15T03:51:00.179Z,0
2017-07-15T03:52:00.187Z,0
2017-07-15T03:52:59.544Z,0
2017-07-15T03:54:00.108Z,5
2017-07-15T03:54:59.775Z,5
2017-07-15T03:56:00.089Z,5
2017-07-15T03:57:00.064Z,5
2017-07-15T03:58:00.045Z,5
2017-07-15T03:59:00.017Z,5
2017-07-15T04:00:00.002Z,5
2017-07-15T04:00:59.675Z,10
2017-07-15T04:01:59.653Z,10
2017-07-15T04:02:59.954Z,10
2017-07-15T04:03:59.615Z,10
2017-07-15T04:04:59.975Z,10
2017-07-15T04:05:59.594Z,10
2017-07-15T04:06:59.314Z,10
2017-07-15T04:07:59.554Z,10
2017-07-15T04:08:58.895Z,15
2017-07-15T04:09:59.556Z,15
2017-07-15T04:10:59.515Z,15
2017-07-15T04:11:59.476Z,15
2017-07-15T04:12:58.925Z,20
2017-07-15T04:13:59.427Z,20
2017-07-15T04:14:59.496Z,20
2017-07-15T04:15:59.105Z,20
2017-07-15T04:16:59.069Z,20
2017-07-15T04:17:59.391Z,20
2017-07-15T04:18:59.691Z,20
2017-07-15T04:19:59.652Z,20
2017-07-15T04:20:59.030Z,25
2017-07-15T04:21:59.296Z,25
2017-07-15T04:22:59.605Z,25
2017-07-15T04:23:58.654Z,25
2017-07-15T04:24:58.615Z,25
2017-07-15T04:25:59.233Z,25
2017-07-15T04:26:59.525Z,25
2017-07-15T04:27:59.214Z,25
2017-07-15T04:28:58.915Z,25
2017-07-15T04:29:59.187Z,25
2017-07-15T04:30:58.529Z,25
2017-07-15T04:31:59.459Z,25
2017-07-15T04:32:58.791Z,25
2017-07-15T04:33:58.790Z,20
2017-07-15T04:34:59.423Z,20
2017-07-15T04:35:59.393Z,20
2017-07-15T04:36:58.725Z,20
2017-07-15T04:37:59.028Z,20
2017-07-15T04:38:59.016Z,20
2017-07-15T04:39:58.685Z,20
2017-07-15T04:40:58.687Z,20
2017-07-15T04:41:58.656Z,20
2017-07-15T04:42:59.270Z,20
2017-07-15T04:43:59.018Z,20
2017-07-15T04:44:58.979Z,20
2017-07-15T04:45:58.886Z,20
2017-07-15T04:46:59.197Z,20
2017-07-15T04:47:59.166Z,20
2017-07-15T04:48:58.837Z,20
2017-07-15T04:49:58.837Z,20
2017-07-15T04:50:58.505Z,20
2017-07-15T04:51:58.486Z,20
2017-07-15T04:52:59.094Z,20
2017-07-15T04:53:58.443Z,20
2017-07-15T04:54:59.053Z,20
2017-07-15T04:55:58.397Z,20
2017-07-15T04:56:58.416Z,20
2017-07-15T04:57:59.046Z,25
2017-07-15T04:58:58.727Z,20
2017-07-15T04:59:58.325Z,25
2017-07-15T05:00:58.009Z,20
2017-07-15T05:01:58.318Z,25
2017-07-15T05:02:58.897Z,25
2017-07-15T05:03:58.298Z,25
2017-07-15T05:04:58.577Z,25
2017-07-15T05:05:58.865Z,25
2017-07-15T05:06:57.917Z,25
2017-07-15T05:07:58.192Z,30
2017-07-15T05:08:58.186Z,30
2017-07-15T05:09:58.483Z,30
2017-07-15T05:10:58.768Z,30
2017-07-15T05:11:57.828Z,35
2017-07-15T05:12:57.817Z,35
2017-07-15T05:13:58.126Z,35
2017-07-15T05:14:58.096Z,35
2017-07-15T05:15:58.698Z,35
2017-07-15T05:16:57.791Z,35
2017-07-15T05:17:57.729Z,35
2017-07-15T05:18:58.347Z,35
2017-07-15T05:19:58.324Z,35
2017-07-15T05:20:58.006Z,35
2017-07-15T05:21:57.976Z,35
2017-07-15T05:22:57.967Z,35
2017-07-15T05:23:57.931Z,35
2017-07-15T05:24:58.546Z,35
2017-07-15T05:25:57.894Z,35
2017-07-15T05:26:57.603Z,30
2017-07-15T05:27:58.246Z,30
2017-07-15T05:28:57.842Z,35
2017-07-15T05:29:58.478Z,35
2017-07-15T05:30:58.446Z,35
2017-07-15T05:31:58.470Z,30
2017-07-15T05:32:58.392Z,30
2017-07-15T05:33:57.465Z,30
2017-07-15T05:34:57.745Z,30
2017-07-15T05:35:57.756Z,35
2017-07-15T05:36:57.719Z,35
2017-07-15T05:37:57.717Z,35
2017-07-15T05:38:58.320Z,40
2017-07-15T05:39:57.668Z,40
2017-07-15T05:40:58.007Z,40
2017-07-15T05:41:57.688Z,40
2017-07-15T05:42:57.308Z,45
2017-07-15T05:43:57.647Z,45
2017-07-15T05:44:57.577Z,45
2017-07-15T05:45:57.569Z,40
2017-07-15T05:46:57.936Z,40
2017-07-15T05:47:57.837Z,45
2017-07-15T05:48:57.510Z,45
2017-07-15T05:49:58.013Z,50
2017-07-15T05:50:57.805Z,55
2017-07-15T05:51:58.106Z,60
2017-07-15T05:52:57.301Z,65
2017-07-15T05:53:57.875Z,60
2017-07-15T05:54:57.166Z,60
2017-07-15T05:55:57.427Z,55
2017-07-15T05:56:57.825Z,55
2017-07-15T05:57:57.778Z,55
2017-07-15T05:58:57.049Z,60
2017-07-15T05:59:57.977Z,65
2017-07-15T06:00:57.372Z,70
2017-07-15T06:01:57.917Z,80
2017-07-15T06:02:57.637Z,85
2017-07-15T06:03:57.272Z,95
2017-07-15T06:04:57.961Z,95
2017-07-15T06:05:57.965Z,110
2017-07-15T06:06:57.870Z,130
2017-07-15T06:07:57.619Z,145
2017-07-15T06:08:57.518Z,140
2017-07-15T06:09:57.493Z,140
2017-07-15T06:10:57.818Z,150
2017-07-15T06:11:57.847Z,155
2017-07-15T06:12:57.767Z,160
2017-07-15T06:13:57.818Z,170
2017-07-15T06:14:57.088Z,170
2017-07-15T06:15:57.104Z,170
2017-07-15T06:16:57.704Z,175
2017-07-15T06:17:57.704Z,175
2017-07-15T06:18:57.030Z,175
2017-07-15T06:19:57.753Z,160
2017-07-15T06:20:57.337Z,140
2017-07-15T06:21:57.639Z,130
2017-07-15T06:22:57.319Z,105
2017-07-15T06:23:57.271Z,90
2017-07-15T06:24:56.998Z,85
2017-07-15T06:25:57.569Z,80
2017-07-15T06:26:57.234Z,65
2017-07-15T06:27:56.556Z,60
2017-07-15T06:28:56.875Z,55
2017-07-15T06:29:57.199Z,55
2017-07-15T06:30:57.209Z,55
2017-07-15T06:31:56.840Z,60
2017-07-15T06:32:56.940Z,55
2017-07-15T06:33:56.467Z,50
2017-07-15T06:34:57.440Z,50
2017-07-15T06:35:56.747Z,45
2017-07-15T06:36:57.397Z,40
2017-07-15T06:37:57.375Z,40
2017-07-15T06:38:57.388Z,40
2017-07-15T06:39:56.378Z,40
2017-07-15T06:40:57.007Z,40
2017-07-15T06:41:56.977Z,35
2017-07-15T06:42:56.349Z,40
2017-07-15T06:43:56.008Z,40
2017-07-15T06:44:56.720Z,45
2017-07-15T06:45:56.937Z,45
2017-07-15T06:46:57.321Z,50
2017-07-15T06:47:57.218Z,45
2017-07-15T06:48:56.561Z,45
2017-07-15T06:49:56.859Z,45
2017-07-15T06:50:57.188Z,45
2017-07-15T06:51:56.197Z,45
2017-07-15T06:52:56.488Z,50
2017-07-15T06:53:56.787Z,55
2017-07-15T06:54:56.780Z,55
2017-07-15T06:55:56.774Z,55
2017-07-15T06:56:56.439Z,55
2017-07-15T06:57:57.061Z,50
2017-07-15T06:58:57.043Z,50
2017-07-15T06:59:57.047Z,55
2017-07-15T07:00:56.365Z,60
2017-07-15T07:01:56.988Z,65
2017-07-15T07:02:56.333Z,70
2017-07-15T07:03:56.014Z,75
2017-07-15T07:04:56.312Z,90
2017-07-15T07:05:56.911Z,95
2017-07-15T07:06:56.584Z,100
2017-07-15T07:07:56.879Z,100
2017-07-15T07:08:56.552Z,100
2017-07-15T07:09:56.537Z,105
2017-07-15T07:10:56.530Z,120
2017-07-15T07:11:55.887Z,120
2017-07-15T07:12:56.504Z,105
2017-07-15T07:13:55.856Z,95
2017-07-15T07:14:56.148Z,85
2017-07-15T07:15:56.113Z,75
2017-07-15T07:16:56.741Z,60
2017-07-15T07:17:56.146Z,55
2017-07-15T07:18:56.087Z,45
2017-07-15T07:19:56.078Z,45
2017-07-15T07:20:56.690Z,45
2017-07-15T07:21:56.369Z,45
2017-07-15T07:22:56.033Z,55
2017-07-15T07:23:55.373Z,65
2017-07-15T07:24:55.677Z,70
2017-07-15T07:25:56.608Z,75
2017-07-15T07:26:55.646Z,75
2017-07-15T07:27:55.935Z,75
2017-07-15T07:28:56.567Z,75
2017-07-15T07:29:55.929Z,75
2017-07-15T07:30:55.887Z,75
2017-07-15T07:31:55.886Z,75
2017-07-15T07:32:55.545Z,80
2017-07-15T07:33:55.536Z,85
2017-07-15T07:34:56.457Z,85
2017-07-15T07:35:55.824Z,95
2017-07-15T07:36:56.110Z,110
2017-07-15T07:37:55.796Z,110
2017-07-15T07:38:55.756Z,120
2017-07-15T07:39:56.084Z,130
2017-07-15T07:40:55.735Z,135
2017-07-15T07:41:55.739Z,135
2017-07-15T07:42:55.717Z,125
2017-07-15T07:43:56.330Z,115
2017-07-15T07:44:55.388Z,110
2017-07-15T07:45:55.973Z,110
2017-07-15T07:46:55.643Z,120
2017-07-15T07:47:55.328Z,135
2017-07-15T07:48:55.977Z,145
2017-07-15T07:49:55.932Z,150
2017-07-15T07:50:55.645Z,155
2017-07-15T07:51:55.583Z,150
2017-07-15T07:52:55.287Z,140
2017-07-15T07:53:55.368Z,150
2017-07-15T07:54:56.137Z,150
2017-07-15T07:55:56.146Z,135
2017-07-15T07:56:55.585Z,135
2017-07-15T07:57:55.517Z,145
2017-07-15T07:58:56.085Z,125
2017-07-15T07:59:55.566Z,120
2017-07-15T08:00:55.837Z,120
2017-07-15T08:01:55.744Z,105
2017-07-15T08:02:55.104Z,100
2017-07-15T08:03:55.711Z,100
2017-07-15T08:04:55.754Z,100
2017-07-15T08:05:55.686Z,115
2017-07-15T08:06:55.059Z,135
2017-07-15T08:07:55.319Z,180
2017-07-15T08:08:55.706Z,230
2017-07-15T08:09:55.614Z,235
2017-07-15T08:10:55.422Z,245
2017-07-15T08:11:55.280Z,280
2017-07-15T08:12:55.916Z,305
2017-07-15T08:13:55.886Z,310
2017-07-15T08:14:55.574Z,360
2017-07-15T08:15:55.596Z,350
2017-07-15T08:16:55.222Z,345
2017-07-15T08:17:54.895Z,380
2017-07-15T08:18:55.496Z,385
2017-07-15T08:19:55.526Z,410
2017-07-15T08:20:55.453Z,395
2017-07-15T08:21:55.481Z,395
2017-07-15T08:22:55.809Z,360
2017-07-15T08:23:55.107Z,325
2017-07-15T08:24:55.718Z,280
2017-07-15T08:25:55.130Z,255
2017-07-15T08:26:55.391Z,235
2017-07-15T08:27:54.766Z,225
2017-07-15T08:28:54.767Z,230
2017-07-15T08:29:55.068Z,200
2017-07-15T08:30:55.378Z,185
2017-07-15T08:31:55.314Z,170
2017-07-15T08:32:55.319Z,150
2017-07-15T08:33:55.286Z,130
2017-07-15T08:34:55.646Z,120
2017-07-15T08:35:55.591Z,120
2017-07-15T08:36:55.578Z,115
2017-07-15T08:37:55.291Z,100
2017-07-15T08:38:55.617Z,85
2017-07-15T08:39:55.325Z,80
2017-07-15T08:40:54.602Z,70
2017-07-15T08:41:55.230Z,65
2017-07-15T08:42:55.187Z,60
2017-07-15T08:43:55.474Z,60
2017-07-15T08:44:55.167Z,60
2017-07-15T08:45:55.439Z,60
2017-07-15T08:46:55.164Z,65
2017-07-15T08:47:55.438Z,65
2017-07-15T08:48:54.785Z,65
2017-07-15T08:49:54.455Z,65
2017-07-15T08:50:55.075Z,70
2017-07-15T08:51:54.749Z,80
2017-07-15T08:52:55.380Z,85
2017-07-15T08:53:55.364Z,95
2017-07-15T08:54:54.374Z,100
2017-07-15T08:55:54.994Z,100
2017-07-15T08:56:54.349Z,105
2017-07-15T08:57:55.006Z,110
2017-07-15T08:58:54.975Z,120
2017-07-15T08:59:54.308Z,130
2017-07-15T09:00:55.257Z,145
2017-07-15T09:01:55.239Z,155
2017-07-15T09:02:54.905Z,165
2017-07-15T09:03:55.221Z,175
2017-07-15T09:04:55.198Z,185
2017-07-15T09:05:54.868Z,175
2017-07-15T09:06:55.201Z,160
2017-07-15T09:07:54.195Z,155
2017-07-15T09:08:54.963Z,155
2017-07-15T09:09:54.506Z,150
2017-07-15T09:10:54.796Z,155
2017-07-15T09:11:54.796Z,160
2017-07-15T09:12:54.446Z,175
2017-07-15T09:13:54.740Z,225
2017-07-15T09:14:54.746Z,580
2017-07-15T09:15:55.049Z,430
2017-07-15T09:16:55.041Z,395
2017-07-15T09:17:55.048Z,330
2017-07-15T09:18:54.655Z,315
2017-07-15T09:19:54.995Z,655
2017-07-15T09:20:54.995Z,1135
2017-07-15T09:21:54.640Z,590
2017-07-15T09:22:54.641Z,500
2017-07-15T09:23:54.968Z,1445
2017-07-15T09:24:54.605Z,1455
2017-07-15T09:25:54.925Z,415
2017-07-15T09:26:54.918Z,345
2017-07-15T09:27:54.578Z,350
2017-07-15T09:28:54.878Z,325
2017-07-15T09:29:54.873Z,290
2017-07-15T09:30:54.626Z,250
2017-07-15T09:31:54.962Z,220
2017-07-15T09:32:54.847Z,205
2017-07-15T09:33:54.853Z,205
2017-07-15T09:34:54.527Z,205
2017-07-15T09:35:54.161Z,200
2017-07-15T09:36:54.927Z,195
2017-07-15T09:37:54.778Z,185
2017-07-15T09:38:53.856Z,180
2017-07-15T09:39:54.426Z,170
2017-07-15T09:40:54.798Z,150
2017-07-15T09:41:54.410Z,135
2017-07-15T09:42:54.829Z,125
2017-07-15T09:43:53.766Z,115
2017-07-15T09:44:54.726Z,110
2017-07-15T09:45:54.766Z,105
2017-07-15T09:46:54.695Z,105
2017-07-15T09:47:54.038Z,105
2017-07-15T09:48:54.335Z,105
2017-07-15T09:49:54.430Z,100
2017-07-15T09:50:54.069Z,100
2017-07-15T09:51:54.087Z,100
2017-07-15T09:52:54.270Z,100
2017-07-15T09:53:54.077Z,105
2017-07-15T09:54:53.988Z,110
2017-07-15T09:55:54.569Z,125
2017-07-15T09:56:53.608Z,140
2017-07-15T09:57:54.228Z,160
2017-07-15T09:58:54.523Z,275
2017-07-15T09:59:54.594Z,175
2017-07-15T10:00:54.202Z,250
2017-07-15T10:01:54.169Z,420
2017-07-15T10:02:54.481Z,495
2017-07-15T10:03:53.810Z,345
2017-07-15T10:04:54.137Z,325
2017-07-15T10:05:54.111Z,310
2017-07-15T10:06:53.806Z,295
2017-07-15T10:07:54.410Z,900
2017-07-15T10:08:54.447Z,450
2017-07-15T10:09:54.373Z,400
2017-07-15T10:10:54.058Z,340
2017-07-15T10:11:54.054Z,480
2017-07-15T10:12:54.136Z,655
2017-07-15T10:13:53.697Z,675
2017-07-15T10:14:54.003Z,405
2017-07-15T10:15:54.305Z,335
2017-07-15T10:16:53.670Z,310
2017-07-15T10:17:53.792Z,315
2017-07-15T10:18:53.967Z,300
2017-07-15T10:19:53.938Z,330
2017-07-15T10:20:53.938Z,450
2017-07-15T10:21:54.245Z,475
2017-07-15T10:22:53.631Z,560
2017-07-15T10:23:53.595Z,355
2017-07-15T10:24:53.288Z,345
2017-07-15T10:25:54.216Z,545
2017-07-15T10:26:54.205Z,575
2017-07-15T10:27:53.859Z,370
2017-07-15T10:28:53.861Z,365
2017-07-15T10:29:53.834Z,320
2017-07-15T10:30:53.887Z,375
2017-07-15T10:31:53.924Z,355
2017-07-15T10:32:54.158Z,350
2017-07-15T10:33:53.827Z,385
2017-07-15T10:34:53.845Z,335
2017-07-15T10:35:53.465Z,310
2017-07-15T10:36:53.855Z,305
2017-07-15T10:37:53.543Z,290
2017-07-15T10:38:54.174Z,270
2017-07-15T10:39:54.077Z,245
2017-07-15T10:40:54.063Z,245
2017-07-15T10:41:54.136Z,245
2017-07-15T10:42:54.035Z,230
2017-07-15T10:43:53.748Z,230
2017-07-15T10:44:53.390Z,255
2017-07-15T10:45:53.675Z,270
2017-07-15T10:46:53.457Z,260
2017-07-15T10:47:54.064Z,350
2017-07-15T10:48:53.634Z,350
2017-07-15T10:49:54.076Z,350
2017-07-15T10:50:53.925Z,270
2017-07-15T10:51:53.394Z,320
2017-07-15T10:52:53.653Z,275
2017-07-15T10:53:53.269Z,275
2017-07-15T10:54:53.933Z,235
2017-07-15T10:55:53.936Z,225
2017-07-15T10:56:53.863Z,230
2017-07-15T10:57:52.955Z,230
2017-07-15T10:58:53.555Z,230
2017-07-15T10:59:53.554Z,230
2017-07-15T11:00:53.860Z,230
2017-07-15T11:01:53.818Z,225
2017-07-15T11:02:53.815Z,235
2017-07-15T11:03:53.485Z,245
2017-07-15T11:04:52.844Z,255
2017-07-15T11:05:53.152Z,270
2017-07-15T11:06:53.142Z,300
2017-07-15T11:07:52.843Z,275
2017-07-15T11:08:53.754Z,260
2017-07-15T11:09:53.755Z,255
2017-07-15T11:10:53.414Z,245
2017-07-15T11:11:53.093Z,230
2017-07-15T11:12:53.083Z,220
2017-07-15T11:13:52.763Z,210
2017-07-15T11:14:53.076Z,200
2017-07-15T11:15:53.375Z,180
2017-07-15T11:16:53.103Z,165
2017-07-15T11:17:53.344Z,155
2017-07-15T11:18:53.622Z,145
2017-07-15T11:19:53.019Z,135
2017-07-15T11:20:53.316Z,125
2017-07-15T11:21:52.986Z,120
2017-07-15T11:22:53.077Z,120
2017-07-15T11:23:52.956Z,115
2017-07-15T11:24:53.253Z,115
2017-07-15T11:25:53.559Z,110
2017-07-15T11:26:53.243Z,110
2017-07-15T11:27:53.294Z,110
2017-07-15T11:28:52.906Z,110
2017-07-15T11:29:53.533Z,105
2017-07-15T11:30:53.247Z,105
2017-07-15T11:31:52.858Z,105
2017-07-15T11:32:53.485Z,105
2017-07-15T11:33:53.183Z,110
2017-07-15T11:34:53.496Z,115
2017-07-15T11:35:52.827Z,120
2017-07-15T11:36:52.808Z,130
2017-07-15T11:37:53.110Z,145
2017-07-15T11:38:53.120Z,155
2017-07-15T11:39:53.154Z,165
2017-07-15T11:40:53.395Z,175
2017-07-15T11:41:53.056Z,205
2017-07-15T11:42:53.042Z,225
2017-07-15T11:43:53.064Z,220
2017-07-15T11:44:53.045Z,215
2017-07-15T11:45:53.057Z,210
2017-07-15T11:46:52.697Z,210
2017-07-15T11:47:52.985Z,205
2017-07-15T11:48:53.083Z,205
2017-07-15T11:49:52.968Z,200
2017-07-15T11:50:53.277Z,195
2017-07-15T11:51:52.939Z,195
2017-07-15T11:52:52.982Z,190
2017-07-15T11:53:52.984Z,175
2017-07-15T11:54:53.242Z,155
2017-07-15T11:55:52.903Z,150
2017-07-15T11:56:52.907Z,155
2017-07-15T11:57:53.184Z,160
2017-07-15T11:58:52.919Z,155
2017-07-15T11:59:52.872Z,165
2017-07-15T12:00:52.840Z,170
2017-07-15T12:01:52.847Z,170
2017-07-15T12:02:52.830Z,180
2017-07-15T12:03:52.803Z,185
2017-07-15T12:04:53.106Z,200
2017-07-15T12:05:52.799Z,215
2017-07-15T12:06:52.795Z,235
2017-07-15T12:07:52.754Z,230
2017-07-15T12:08:53.054Z,240
2017-07-15T12:09:52.762Z,245
2017-07-15T12:10:53.053Z,250
2017-07-15T12:11:53.038Z,295
2017-07-15T12:12:53.024Z,275
2017-07-15T12:13:53.012Z,270
2017-07-15T12:14:53.009Z,290
2017-07-15T12:15:53.007Z,325
2017-07-15T12:16:52.678Z,285
2017-07-15T12:17:52.965Z,275
2017-07-15T12:18:52.954Z,290
2017-07-15T12:19:52.955Z,285
2017-07-15T12:20:52.933Z,270
2017-07-15T12:21:52.938Z,270
2017-07-15T12:22:52.279Z,265
2017-07-15T12:23:52.901Z,250
2017-07-15T12:24:52.575Z,245
2017-07-15T12:25:52.574Z,240
2017-07-15T12:26:52.561Z,275
2017-07-15T12:27:52.896Z,275
2017-07-15T12:28:52.859Z,275
2017-07-15T12:29:52.525Z,235
2017-07-15T12:30:52.847Z,240
2017-07-15T12:31:52.836Z,240
2017-07-15T12:32:52.185Z,225
2017-07-15T12:33:52.923Z,205
2017-07-15T12:34:52.795Z,205
2017-07-15T12:35:52.789Z,220
2017-07-15T12:36:52.462Z,220
2017-07-15T12:37:52.784Z,255
2017-07-15T12:38:52.753Z,290
2017-07-15T12:39:52.416Z,230
2017-07-15T12:40:52.180Z,230
2017-07-15T12:41:52.710Z,240
2017-07-15T12:42:52.071Z,250
2017-07-15T12:43:52.374Z,275
2017-07-15T12:44:52.386Z,290
2017-07-15T12:45:52.041Z,240
2017-07-15T12:46:52.465Z,270
2017-07-15T12:47:52.407Z,260
2017-07-15T12:48:52.304Z,250
2017-07-15T12:49:52.670Z,240
2017-07-15T12:50:52.359Z,255
2017-07-15T12:51:52.632Z,285
2017-07-15T12:52:52.658Z,285
2017-07-15T12:53:52.290Z,275
2017-07-15T12:54:52.307Z,285
2017-07-15T12:55:52.561Z,255
2017-07-15T12:56:52.563Z,225
2017-07-15T12:57:52.563Z,215
2017-07-15T12:58:52.559Z,210
2017-07-15T12:59:52.216Z,210
2017-07-15T13:00:52.215Z,205
2017-07-15T13:01:52.515Z,200
2017-07-15T13:02:52.506Z,200
2017-07-15T13:03:52.536Z,200
2017-07-15T13:04:52.486Z,200
2017-07-15T13:05:52.469Z,195
2017-07-15T13:06:52.465Z,190
2017-07-15T13:07:52.447Z,180
2017-07-15T13:08:51.494Z,185
2017-07-15T13:09:52.446Z,175
2017-07-15T13:10:52.401Z,170
2017-07-15T13:11:52.432Z,160
2017-07-15T13:12:52.406Z,155
2017-07-15T13:13:52.408Z,150
2017-07-15T13:14:51.435Z,150
2017-07-15T13:15:52.353Z,150
2017-07-15T13:16:51.408Z,145
2017-07-15T13:17:52.355Z,145
2017-07-15T13:18:52.082Z,145
2017-07-15T13:19:52.320Z,155
2017-07-15T13:20:51.684Z,160
2017-07-15T13:21:52.306Z,170
2017-07-15T13:22:51.325Z,180
2017-07-15T13:23:51.942Z,185
2017-07-15T13:24:51.942Z,230
2017-07-15T13:25:51.620Z,195
2017-07-15T13:26:52.355Z,195
2017-07-15T13:27:52.287Z,195
2017-07-15T13:28:52.227Z,205
2017-07-15T13:29:51.930Z,210
2017-07-15T13:30:51.278Z,195
2017-07-15T13:31:51.573Z,190
2017-07-15T13:32:51.297Z,195
2017-07-15T13:33:52.259Z,185
2017-07-15T13:34:51.837Z,185
2017-07-15T13:35:51.863Z,185
2017-07-15T13:36:51.866Z,190
2017-07-15T13:37:52.191Z,190
2017-07-15T13:38:51.879Z,195
2017-07-15T13:39:51.794Z,190
2017-07-15T13:40:51.464Z,185
2017-07-15T13:41:52.097Z,180
2017-07-15T13:42:51.180Z,180
2017-07-15T13:43:51.762Z,185
2017-07-15T13:44:51.752Z,185
2017-07-15T13:45:51.097Z,185
2017-07-15T13:46:51.698Z,185
2017-07-15T13:47:51.706Z,180
2017-07-15T13:48:52.119Z,175
2017-07-15T13:49:51.365Z,165
2017-07-15T13:50:51.442Z,165
2017-07-15T13:51:51.016Z,155
2017-07-15T13:52:51.670Z,155
2017-07-15T13:53:51.013Z,160
2017-07-15T13:54:51.946Z,165
2017-07-15T13:55:51.624Z,170
2017-07-15T13:56:51.306Z,170
2017-07-15T13:57:51.909Z,175
2017-07-15T13:58:51.585Z,175
2017-07-15T13:59:51.578Z,175
2017-07-15T14:00:51.551Z,185
2017-07-15T14:01:51.376Z,180
2017-07-15T14:02:51.574Z,185
2017-07-15T14:03:51.536Z,205
2017-07-15T14:04:51.503Z,175
2017-07-15T14:05:51.501Z,180
2017-07-15T14:06:51.512Z,180
2017-07-15T14:07:51.183Z,180
2017-07-15T14:08:51.801Z,180